createdAt,value
2018-09-09T00:01:12.579Z,52.90
2018-09-09T00:03:41.119Z,52.90
2018-09-09T00:06:09.643Z,52.90
2018-09-09T00:08:38.191Z,53.00
2018-09-09T00:11:06.732Z,53.00
2018-09-09T00:13:35.399Z,53.00
2018-09-09T00:16:03.940Z,53.00
2018-09-09T00:18:32.578Z,53.10
2018-09-09T00:21:01.111Z,53.10
2018-09-09T00:23:30.172Z,53.10
2018-09-09T00:25:58.680Z,53.30
2018-09-09T00:28:27.247Z,53.10
2018-09-09T00:30:55.850Z,53.00
2018-09-09T00:33:24.442Z,53.10
2018-09-09T00:35:52.984Z,53.10
2018-09-09T00:38:21.591Z,53.00
2018-09-09T00:40:50.185Z,53.10
2018-09-09T00:43:18.783Z,53.10
2018-09-09T00:45:47.335Z,53.10
2018-09-09T00:48:15.895Z,53.10
2018-09-09T00:50:49.961Z,53.00
2018-09-09T00:53:23.758Z,53.10
2018-09-09T00:55:52.409Z,52.60
2018-09-09T00:58:20.973Z,53.10
2018-09-09T01:00:54.851Z,53.10
2018-09-09T01:03:23.421Z,53.00
2018-09-09T01:05:52.084Z,53.20
2018-09-09T01:08:20.659Z,53.10
2018-09-09T01:10:49.223Z,53.20
2018-09-09T01:13:17.803Z,53.20
2018-09-09T01:15:46.343Z,53.20
2018-09-09T01:18:14.930Z,53.30
2018-09-09T01:20:43.455Z,53.80
2018-09-09T01:23:12.025Z,53.30
2018-09-09T01:25:40.641Z,52.80
2018-09-09T01:28:09.568Z,53.20
2018-09-09T01:30:38.220Z,53.20
2018-09-09T01:33:06.826Z,53.20
2018-09-09T01:35:35.378Z,53.10
2018-09-09T01:38:03.945Z,53.20
2018-09-09T01:40:32.467Z,53.10
2018-09-09T01:43:01.046Z,53.10
2018-09-09T01:45:29.596Z,53.10
2018-09-09T01:47:58.135Z,53.20
2018-09-09T01:50:27.191Z,53.20
2018-09-09T01:52:56.015Z,53.20
2018-09-09T01:55:24.575Z,53.20
2018-09-09T01:57:53.127Z,53.20
2018-09-09T02:00:21.734Z,53.30
2018-09-09T02:02:50.295Z,53.30
2018-09-09T02:05:18.952Z,53.40
2018-09-09T02:07:47.511Z,53.50
2018-09-09T02:10:16.056Z,53.50
2018-09-09T02:12:44.611Z,53.50
2018-09-09T02:15:13.159Z,53.50
2018-09-09T02:17:41.706Z,53.60
2018-09-09T02:20:10.491Z,53.60
2018-09-09T02:22:39.048Z,53.60
2018-09-09T02:25:07.621Z,53.60
2018-09-09T02:27:36.175Z,53.70
2018-09-09T02:30:04.881Z,53.70
2018-09-09T02:32:33.850Z,53.70
2018-09-09T02:35:02.400Z,53.70
2018-09-09T02:37:31.051Z,53.70
2018-09-09T02:39:59.587Z,53.70
2018-09-09T02:42:28.142Z,53.80
2018-09-09T02:44:57.896Z,53.80
2018-09-09T02:47:26.430Z,53.80
2018-09-09T02:49:54.949Z,53.80
2018-09-09T02:52:23.507Z,53.70
2018-09-09T02:54:52.035Z,53.70
2018-09-09T02:57:20.610Z,53.70
2018-09-09T02:59:49.140Z,53.70
2018-09-09T03:02:17.669Z,53.70
2018-09-09T03:04:46.276Z,53.70
2018-09-09T03:07:14.822Z,53.70
2018-09-09T03:09:43.361Z,53.70
2018-09-09T03:12:11.907Z,53.80
2018-09-09T03:14:40.475Z,53.70
2018-09-09T03:17:09.060Z,53.80
2018-09-09T03:19:37.635Z,53.80
2018-09-09T03:22:06.184Z,53.80
2018-09-09T03:24:34.718Z,53.80
2018-09-09T03:27:03.287Z,53.80
2018-09-09T03:29:31.858Z,53.80
2018-09-09T03:32:00.419Z,54.40
2018-09-09T03:34:29.001Z,53.60
2018-09-09T03:36:57.756Z,53.70
2018-09-09T03:39:26.369Z,53.60
2018-09-09T03:41:54.918Z,53.70
2018-09-09T03:44:23.928Z,53.70
2018-09-09T03:46:52.567Z,53.70
2018-09-09T03:49:21.148Z,53.70
2018-09-09T03:51:49.677Z,53.70
2018-09-09T03:54:18.210Z,53.70
2018-09-09T03:56:46.758Z,53.70
2018-09-09T03:59:15.271Z,53.80
2018-09-09T04:01:43.807Z,53.70
2018-09-09T04:04:12.427Z,53.70
2018-09-09T04:06:40.952Z,53.70
2018-09-09T04:09:09.599Z,53.70
2018-09-09T04:11:38.135Z,53.80
2018-09-09T04:14:06.812Z,53.70
2018-09-09T04:16:35.351Z,53.80
2018-09-09T04:19:03.916Z,53.80
2018-09-09T04:21:36.723Z,53.90
2018-09-09T04:24:05.432Z,54.00
2018-09-09T04:26:33.971Z,53.90
2018-09-09T04:29:02.554Z,53.90
2018-09-09T04:31:31.156Z,54.00
2018-09-09T04:33:59.692Z,53.80
2018-09-09T04:36:28.228Z,53.80
2018-09-09T04:38:56.805Z,53.70
2018-09-09T04:41:25.363Z,53.70
2018-09-09T04:43:53.931Z,53.70
2018-09-09T04:46:22.491Z,53.70
2018-09-09T04:48:51.039Z,53.70
2018-09-09T04:51:19.556Z,53.80
2018-09-09T04:53:48.204Z,53.80
2018-09-09T04:56:16.748Z,53.80
2018-09-09T04:58:45.327Z,53.80
2018-09-09T05:01:13.974Z,53.70
2018-09-09T05:03:42.472Z,53.80
2018-09-09T05:06:11.048Z,53.80
2018-09-09T05:08:39.606Z,53.80
2018-09-09T05:11:08.243Z,53.80
2018-09-09T05:13:36.790Z,53.80
2018-09-09T05:16:05.479Z,53.80
2018-09-09T05:18:34.005Z,54.10
2018-09-09T05:21:02.563Z,54.00
2018-09-09T05:23:31.119Z,54.00
2018-09-09T05:25:59.707Z,54.00
2018-09-09T05:28:28.275Z,54.40
2018-09-09T05:30:56.856Z,52.90
2018-09-09T05:33:25.512Z,50.80
2018-09-09T05:35:54.187Z,50.10
2018-09-09T05:38:22.707Z,49.80
2018-09-09T05:40:51.423Z,49.80
2018-09-09T05:43:19.994Z,50.00
2018-09-09T05:45:48.519Z,49.70
2018-09-09T05:48:17.428Z,49.70
2018-09-09T05:50:46.525Z,49.70
2018-09-09T05:53:16.075Z,49.80
2018-09-09T05:55:46.131Z,50.20
2018-09-09T05:58:14.673Z,52.60
2018-09-09T06:00:43.232Z,51.00
2018-09-09T06:03:12.276Z,50.80
2018-09-09T06:05:46.141Z,50.50
2018-09-09T06:08:14.787Z,50.60
2018-09-09T06:10:43.402Z,50.30
2018-09-09T06:13:12.016Z,50.10
2018-09-09T06:15:40.589Z,50.10
2018-09-09T06:18:09.155Z,50.00
2018-09-09T06:20:37.884Z,50.40
2018-09-09T06:23:06.523Z,50.20
2018-09-09T06:25:35.078Z,50.10
2018-09-09T06:28:03.643Z,49.50
2018-09-09T06:30:32.248Z,50.10
2018-09-09T06:33:00.791Z,50.20
2018-09-09T06:35:29.488Z,50.00
2018-09-09T06:37:58.311Z,50.20
2018-09-09T06:40:27.598Z,50.00
2018-09-09T06:42:56.320Z,50.30
2018-09-09T06:45:24.872Z,50.30
2018-09-09T06:47:53.531Z,50.40
2018-09-09T06:50:22.091Z,50.30
2018-09-09T06:52:50.704Z,50.40
2018-09-09T06:55:19.332Z,50.50
2018-09-09T06:57:47.864Z,50.60
2018-09-09T07:00:16.485Z,50.60
2018-09-09T07:02:45.025Z,50.80
2018-09-09T07:05:13.572Z,50.80
2018-09-09T07:07:42.149Z,50.90
2018-09-09T07:10:10.699Z,50.90
2018-09-09T07:12:39.263Z,51.00
2018-09-09T07:15:07.823Z,51.10
2018-09-09T07:17:36.616Z,50.70
2018-09-09T07:20:05.221Z,50.70
2018-09-09T07:22:33.771Z,50.70
2018-09-09T07:25:02.375Z,50.70
2018-09-09T07:27:30.911Z,50.60
2018-09-09T07:29:59.452Z,50.60
2018-09-09T07:32:27.986Z,50.80
2018-09-09T07:34:56.530Z,50.80
2018-09-09T07:37:25.115Z,50.70
2018-09-09T07:39:53.681Z,50.50
2018-09-09T07:42:22.310Z,49.90
2018-09-09T07:44:50.867Z,50.00
2018-09-09T07:47:19.423Z,50.10
2018-09-09T07:49:47.953Z,50.00
2018-09-09T07:52:16.515Z,50.20
2018-09-09T07:54:46.598Z,49.40
2018-09-09T07:57:15.124Z,50.00
2018-09-09T07:59:43.688Z,49.80
2018-09-09T08:02:12.259Z,49.50
2018-09-09T08:04:40.801Z,49.40
2018-09-09T08:07:09.376Z,49.50
2018-09-09T08:09:37.919Z,49.10
2018-09-09T08:12:06.532Z,48.90
2018-09-09T08:14:35.057Z,48.70
2018-09-09T08:17:03.617Z,48.50
2018-09-09T08:19:32.183Z,48.40
2018-09-09T08:22:00.775Z,48.30
2018-09-09T08:24:29.348Z,48.40
2018-09-09T08:26:57.920Z,48.50
2018-09-09T08:29:26.506Z,48.50
2018-09-09T08:31:55.097Z,48.90
2018-09-09T08:34:23.675Z,48.80
2018-09-09T08:36:52.446Z,48.60
2018-09-09T08:39:21.021Z,48.50
2018-09-09T08:41:49.556Z,48.50
2018-09-09T08:44:18.145Z,48.10
2018-09-09T08:46:46.719Z,48.00
2018-09-09T08:49:15.274Z,47.80
2018-09-09T08:51:43.904Z,47.80
2018-09-09T08:54:12.461Z,47.80
2018-09-09T08:56:41.002Z,47.70
2018-09-09T08:59:09.567Z,47.50
2018-09-09T09:01:38.125Z,47.20
2018-09-09T09:04:06.695Z,47.30
2018-09-09T09:06:35.302Z,47.20
2018-09-09T09:09:05.199Z,47.30
2018-09-09T09:11:33.827Z,47.50
2018-09-09T09:14:02.375Z,47.50
2018-09-09T09:16:30.942Z,47.50
2018-09-09T09:18:59.500Z,47.40
2018-09-09T09:21:28.107Z,47.70
2018-09-09T09:23:56.697Z,47.70
2018-09-09T09:26:25.248Z,47.60
2018-09-09T09:28:53.767Z,47.00
2018-09-09T09:31:22.325Z,46.80
2018-09-09T09:33:50.900Z,46.50
2018-09-09T09:36:19.455Z,46.50
2018-09-09T09:38:48.033Z,46.60
2018-09-09T09:41:16.583Z,46.80
2018-09-09T09:43:45.199Z,46.70
2018-09-09T09:46:13.750Z,46.50
2018-09-09T09:48:42.304Z,46.70
2018-09-09T09:51:10.942Z,46.60
2018-09-09T09:53:39.638Z,46.50
2018-09-09T09:56:08.418Z,45.90
2018-09-09T09:58:37.018Z,46.50
2018-09-09T10:01:05.615Z,46.50
2018-09-09T10:03:34.235Z,47.10
2018-09-09T10:06:02.790Z,46.80
2018-09-09T10:08:31.366Z,46.50
2018-09-09T10:11:00.118Z,46.00
2018-09-09T10:13:28.747Z,46.60
2018-09-09T10:15:57.288Z,45.80
2018-09-09T10:18:25.856Z,46.10
2018-09-09T10:20:54.395Z,45.40
2018-09-09T10:23:22.940Z,45.30
2018-09-09T10:25:51.516Z,45.10
2018-09-09T10:28:20.067Z,45.10
2018-09-09T10:30:48.615Z,45.50
2018-09-09T10:33:17.150Z,45.80
2018-09-09T10:35:45.694Z,46.00
2018-09-09T10:38:14.296Z,45.50
2018-09-09T10:40:42.909Z,45.30
2018-09-09T10:43:11.436Z,45.30
2018-09-09T10:45:40.334Z,45.20
2018-09-09T10:48:09.449Z,45.30
2018-09-09T10:50:38.015Z,45.50
2018-09-09T10:53:06.603Z,45.80
2018-09-09T10:55:35.143Z,45.50
2018-09-09T10:58:03.667Z,45.30
2018-09-09T11:00:32.705Z,45.40
2018-09-09T11:03:01.249Z,45.40
2018-09-09T11:05:29.841Z,45.70
2018-09-09T11:07:58.412Z,45.50
2018-09-09T11:10:27.015Z,45.60
2018-09-09T11:12:55.623Z,45.70
2018-09-09T11:15:24.254Z,45.70
2018-09-09T11:17:53.265Z,45.80
2018-09-09T11:20:21.899Z,46.10
2018-09-09T11:22:50.451Z,46.00
2018-09-09T11:25:19.047Z,49.40
2018-09-09T11:27:47.604Z,48.60
2018-09-09T11:30:16.157Z,49.80
2018-09-09T11:32:44.684Z,49.60
2018-09-09T11:35:13.237Z,49.40
2018-09-09T11:37:41.808Z,47.60
2018-09-09T11:40:10.350Z,47.50
2018-09-09T11:42:39.048Z,48.50
2018-09-09T11:45:07.577Z,47.70
2018-09-09T11:47:36.172Z,47.10
2018-09-09T11:50:04.740Z,47.20
2018-09-09T11:52:33.296Z,46.40
2018-09-09T11:55:01.849Z,46.50
2018-09-09T11:57:30.414Z,45.50
2018-09-09T11:59:59.009Z,45.10
2018-09-09T12:02:27.543Z,45.10
2018-09-09T12:04:56.143Z,45.30
2018-09-09T12:07:24.784Z,45.60
2018-09-09T12:09:53.419Z,45.50
2018-09-09T12:12:25.379Z,45.40
2018-09-09T12:14:54.248Z,45.10
2018-09-09T12:17:22.838Z,44.70
2018-09-09T12:19:51.490Z,44.30
2018-09-09T12:22:20.028Z,44.40
2018-09-09T12:24:48.621Z,44.60
2018-09-09T12:27:17.439Z,44.50
2018-09-09T12:29:45.986Z,44.20
2018-09-09T12:32:14.611Z,44.00
2018-09-09T12:34:43.189Z,43.80
2018-09-09T12:37:11.706Z,43.50
2018-09-09T12:39:40.355Z,43.40
2018-09-09T12:42:08.911Z,43.60
2018-09-09T12:44:43.472Z,43.50
2018-09-09T12:47:17.575Z,42.80
2018-09-09T12:49:46.268Z,43.30
2018-09-09T12:52:14.821Z,43.20
2018-09-09T12:54:43.475Z,43.10
2018-09-09T12:57:12.060Z,43.90
2018-09-09T12:59:40.733Z,44.40
2018-09-09T13:02:09.347Z,43.90
2018-09-09T13:04:37.920Z,44.00
2018-09-09T13:07:06.478Z,45.20
2018-09-09T13:09:35.027Z,45.10
2018-09-09T13:12:03.578Z,44.80
2018-09-09T13:14:32.119Z,44.60
2018-09-09T13:17:00.650Z,44.40
2018-09-09T13:19:29.283Z,44.70
2018-09-09T13:21:58.619Z,44.60
2018-09-09T13:24:27.277Z,44.60
2018-09-09T13:26:55.869Z,44.50
2018-09-09T13:29:24.512Z,44.60
2018-09-09T13:31:53.093Z,44.80
2018-09-09T13:34:21.687Z,44.80
2018-09-09T13:36:50.232Z,44.70
2018-09-09T13:39:18.807Z,44.80
2018-09-09T13:41:47.367Z,44.90
2018-09-09T13:44:15.938Z,44.60
2018-09-09T13:46:44.551Z,44.50
2018-09-09T13:49:13.095Z,44.10
2018-09-09T13:51:41.699Z,44.70
2018-09-09T13:54:10.262Z,44.40
2018-09-09T13:56:38.848Z,44.50
2018-09-09T13:59:07.421Z,43.90
2018-09-09T14:01:35.999Z,43.80
2018-09-09T14:04:04.555Z,44.10
2018-09-09T14:06:33.124Z,44.50
2018-09-09T14:09:01.710Z,43.60
2018-09-09T14:11:30.302Z,43.90
2018-09-09T14:13:58.879Z,44.40
2018-09-09T14:16:27.435Z,44.50
2018-09-09T14:18:55.988Z,44.50
2018-09-09T14:21:24.600Z,44.30
2018-09-09T14:23:53.195Z,44.70
2018-09-09T14:26:21.803Z,44.50
2018-09-09T14:28:50.444Z,44.90
2018-09-09T14:31:19.011Z,45.00
2018-09-09T14:33:47.548Z,45.10
2018-09-09T14:36:16.100Z,44.90
2018-09-09T14:38:44.672Z,43.80
2018-09-09T14:41:13.210Z,43.80
2018-09-09T14:43:41.800Z,44.40
2018-09-09T14:46:10.400Z,44.00
2018-09-09T14:48:39.032Z,44.20
2018-09-09T14:51:07.743Z,45.40
2018-09-09T14:53:36.417Z,45.10
2018-09-09T14:56:04.947Z,44.60
2018-09-09T14:58:33.486Z,44.50
2018-09-09T15:01:02.140Z,44.60
2018-09-09T15:03:30.726Z,44.40
2018-09-09T15:05:59.260Z,44.00
2018-09-09T15:08:27.851Z,44.00
2018-09-09T15:10:56.409Z,44.30
2018-09-09T15:13:25.003Z,44.90
2018-09-09T15:15:53.582Z,44.80
2018-09-09T15:18:22.236Z,44.60
2018-09-09T15:20:50.784Z,44.60
2018-09-09T15:23:19.340Z,45.10
2018-09-09T15:25:47.920Z,44.60
2018-09-09T15:28:16.512Z,45.20
2018-09-09T15:30:45.079Z,45.10
2018-09-09T15:33:13.650Z,44.90
2018-09-09T15:35:42.179Z,45.50
2018-09-09T15:38:10.842Z,45.30
2018-09-09T15:40:39.392Z,45.70
2018-09-09T15:43:07.978Z,45.80
2018-09-09T15:45:36.532Z,45.30
2018-09-09T15:48:05.134Z,45.20
2018-09-09T15:50:33.706Z,45.80
2018-09-09T15:53:02.296Z,45.60
2018-09-09T15:55:31.055Z,46.00
2018-09-09T15:57:59.625Z,46.10
2018-09-09T16:00:28.314Z,46.20
2018-09-09T16:02:56.799Z,46.30
2018-09-09T16:05:25.368Z,46.40
2018-09-09T16:07:53.929Z,46.50
2018-09-09T16:10:22.541Z,46.60
2018-09-09T16:12:51.152Z,46.70
2018-09-09T16:15:19.748Z,46.70
2018-09-09T16:17:48.295Z,46.90
2018-09-09T16:20:16.876Z,46.80
2018-09-09T16:22:45.439Z,46.90
2018-09-09T16:25:13.975Z,46.90
2018-09-09T16:27:42.523Z,46.30
2018-09-09T16:30:11.650Z,46.90
2018-09-09T16:32:40.219Z,46.90
2018-09-09T16:35:08.775Z,46.90
2018-09-09T16:37:37.341Z,46.90
2018-09-09T16:40:05.937Z,46.90
2018-09-09T16:42:34.523Z,47.20
2018-09-09T16:45:03.140Z,47.00
2018-09-09T16:47:31.773Z,47.00
2018-09-09T16:50:00.677Z,47.10
2018-09-09T16:52:29.654Z,47.20
2018-09-09T16:54:58.764Z,47.20
2018-09-09T16:57:27.390Z,47.20
2018-09-09T16:59:56.037Z,47.30
2018-09-09T17:02:24.668Z,47.40
2018-09-09T17:04:53.231Z,47.50
2018-09-09T17:07:21.788Z,47.50
2018-09-09T17:09:50.424Z,47.60
2018-09-09T17:12:19.065Z,47.60
2018-09-09T17:14:48.773Z,47.80
2018-09-09T17:17:17.445Z,50.20
2018-09-09T17:19:46.007Z,48.80
2018-09-09T17:22:15.532Z,48.60
2018-09-09T17:24:44.297Z,48.70
2018-09-09T17:27:13.715Z,48.60
2018-09-09T17:29:42.391Z,48.80
2018-09-09T17:32:12.463Z,48.70
2018-09-09T17:34:41.063Z,48.80
2018-09-09T17:37:12.652Z,48.80
2018-09-09T17:39:42.219Z,48.80
2018-09-09T17:42:10.828Z,48.90
2018-09-09T17:44:39.385Z,48.90
2018-09-09T17:47:07.904Z,48.90
2018-09-09T17:49:36.491Z,48.90
2018-09-09T17:52:05.045Z,49.00
2018-09-09T17:54:33.580Z,49.10
2018-09-09T17:57:02.204Z,49.10
2018-09-09T17:59:31.412Z,49.10
2018-09-09T18:02:00.970Z,49.10
2018-09-09T18:04:29.943Z,49.20
2018-09-09T18:06:58.514Z,49.20
2018-09-09T18:09:27.095Z,49.20
2018-09-09T18:11:55.748Z,49.30
2018-09-09T18:14:24.364Z,49.30
2018-09-09T18:16:52.963Z,49.30
2018-09-09T18:19:21.531Z,49.40
2018-09-09T18:21:50.087Z,50.10
2018-09-09T18:24:18.714Z,50.30
2018-09-09T18:26:47.344Z,50.10
2018-09-09T18:29:15.965Z,51.80
2018-09-09T18:31:44.539Z,52.90
2018-09-09T18:34:13.122Z,52.30
2018-09-09T18:36:41.849Z,52.20
2018-09-09T18:39:11.162Z,51.90
2018-09-09T18:41:39.818Z,51.80
2018-09-09T18:44:08.436Z,51.60
2018-09-09T18:46:37.026Z,51.60
2018-09-09T18:49:05.664Z,51.70
2018-09-09T18:51:34.252Z,51.70
2018-09-09T18:54:02.876Z,51.60
2018-09-09T18:56:31.470Z,51.60
2018-09-09T18:59:00.078Z,51.50
2018-09-09T19:01:28.664Z,51.50
2018-09-09T19:03:57.226Z,51.50
2018-09-09T19:06:25.824Z,51.40
2018-09-09T19:11:53.371Z,51.30
2018-09-09T19:14:21.989Z,51.30
2018-09-09T19:16:50.645Z,50.80
2018-09-09T19:19:19.216Z,51.30
2018-09-09T19:21:47.879Z,51.30
2018-09-09T19:24:16.455Z,51.60
2018-09-09T19:26:45.035Z,51.50
2018-09-09T19:29:13.952Z,51.50
2018-09-09T19:31:42.532Z,51.60
2018-09-09T19:34:11.084Z,51.60
2018-09-09T19:36:39.666Z,51.60
2018-09-09T19:39:09.893Z,51.60
2018-09-09T19:41:38.495Z,51.60
2018-09-09T19:44:07.303Z,51.60
2018-09-09T19:46:35.871Z,51.10
2018-09-09T19:49:05.147Z,51.60
2018-09-09T19:51:33.756Z,51.60
2018-09-09T19:54:02.443Z,51.60
2018-09-09T19:56:31.029Z,51.70
2018-09-09T19:58:59.635Z,51.60
2018-09-09T20:01:28.289Z,51.70
2018-09-09T20:03:56.835Z,51.70
2018-09-09T20:06:25.406Z,51.70
2018-09-09T20:08:54.021Z,51.70
2018-09-09T20:11:22.759Z,52.30
2018-09-09T20:13:51.411Z,51.70
2018-09-09T20:16:19.972Z,51.70
2018-09-09T20:18:48.536Z,51.70
2018-09-09T20:21:17.150Z,51.70
2018-09-09T20:23:46.192Z,51.30
2018-09-09T20:26:14.781Z,51.80
2018-09-09T20:28:43.576Z,51.80
2018-09-09T20:31:12.207Z,51.30
2018-09-09T20:33:40.786Z,51.80
2018-09-09T20:36:09.384Z,51.80
2018-09-09T20:38:38.014Z,51.80
2018-09-09T20:41:06.678Z,51.80
2018-09-09T20:43:35.300Z,51.90
2018-09-09T20:46:03.892Z,51.90
2018-09-09T20:48:32.498Z,51.90
2018-09-09T20:51:01.793Z,51.90
2018-09-09T20:53:30.800Z,51.90
2018-09-09T20:56:00.324Z,51.90
2018-09-09T20:58:29.632Z,51.90
2018-09-09T21:00:59.338Z,51.90
2018-09-09T21:03:28.019Z,51.90
2018-09-09T21:05:56.635Z,53.50
2018-09-09T21:08:25.258Z,54.20
2018-09-09T21:10:53.880Z,53.00
2018-09-09T21:13:22.503Z,53.40
2018-09-09T21:15:51.106Z,52.90
2018-09-09T21:18:19.759Z,51.60
2018-09-09T21:20:48.323Z,52.20
2018-09-09T21:23:17.031Z,51.40
2018-09-09T21:25:45.624Z,50.80
2018-09-09T21:28:14.253Z,50.20
2018-09-09T21:30:42.855Z,49.40
2018-09-09T21:33:11.495Z,49.10
2018-09-09T21:35:40.095Z,48.60
2018-09-09T21:38:08.786Z,48.00
2018-09-09T21:40:37.370Z,47.70
2018-09-09T21:43:05.981Z,47.20
2018-09-09T21:45:34.574Z,47.00
2018-09-09T21:48:03.266Z,46.60
2018-09-09T21:50:31.876Z,46.40
2018-09-09T21:53:00.457Z,46.60
2018-09-09T21:55:29.165Z,46.30
2018-09-09T21:57:57.850Z,45.90
2018-09-09T22:00:26.476Z,45.60
2018-09-09T22:02:55.089Z,45.30
2018-09-09T22:05:23.718Z,45.10
2018-09-09T22:07:52.360Z,45.00
2018-09-09T22:10:20.947Z,45.60
2018-09-09T22:12:50.012Z,46.30
2018-09-09T22:15:24.027Z,46.60
2018-09-09T22:17:52.659Z,46.90
2018-09-09T22:20:21.239Z,47.60
2018-09-09T22:22:49.839Z,47.60
2018-09-09T22:25:18.563Z,47.80
2018-09-09T22:27:47.191Z,47.80
2018-09-09T22:30:15.828Z,48.10
2018-09-09T22:32:44.431Z,48.20
2018-09-09T22:35:13.032Z,48.40
2018-09-09T22:37:41.729Z,48.90
2018-09-09T22:40:10.314Z,49.50
2018-09-09T22:42:39.031Z,50.00
2018-09-09T22:45:07.652Z,50.10
2018-09-09T22:47:36.255Z,50.40
2018-09-09T22:50:08.347Z,50.50
2018-09-09T22:52:37.014Z,50.80
2018-09-09T22:55:05.601Z,51.00
2018-09-09T22:57:34.351Z,51.20
2018-09-09T23:00:02.994Z,51.80
2018-09-09T23:02:31.577Z,51.00
2018-09-09T23:05:00.208Z,51.50
2018-09-09T23:07:28.756Z,51.60
2018-09-09T23:09:57.367Z,51.70
2018-09-09T23:12:25.923Z,51.80
2018-09-09T23:14:54.612Z,51.90
2018-09-09T23:17:23.246Z,51.40
2018-09-09T23:19:51.815Z,52.00
2018-09-09T23:22:20.384Z,52.00
2018-09-09T23:24:48.964Z,52.10
2018-09-09T23:27:17.602Z,52.10
2018-09-09T23:29:46.208Z,52.20
2018-09-09T23:32:14.763Z,52.30
2018-09-09T23:34:43.333Z,52.20
2018-09-09T23:37:11.933Z,52.30
2018-09-09T23:39:40.499Z,52.30
2018-09-09T23:42:15.808Z,52.30
2018-09-09T23:44:47.084Z,52.40
2018-09-09T23:47:16.995Z,52.40
2018-09-09T23:49:47.238Z,52.50
2018-09-09T23:52:15.806Z,52.50
2018-09-09T23:54:44.507Z,52.50
2018-09-09T23:57:13.185Z,52.50
2018-09-09T23:59:41.764Z,52.50
